sensor_id;sensor_type;location;lat;lon;timestamp;P1;durP1;ratioP1;P2;durP2;ratioP2
9892;SDS011;4985;49.092;8.542;2022-08-18T00:01:44;2.90;;;2.67;;
9892;SDS011;4985;49.092;8.542;2022-08-18T00:04:13;4.03;;;3.62;;
9892;SDS011;4985;49.092;8.542;2022-08-18T00:06:41;4.03;;;3.60;;
9892;SDS011;4985;49.092;8.542;2022-08-18T00:09:08;3.85;;;3.40;;
9892;SDS011;4985;49.092;8.542;2022-08-18T00:11:36;4.35;;;3.53;;
9892;SDS011;4985;49.092;8.542;2022-08-18T00:14:06;3.70;;;3.33;;
9892;SDS011;4985;49.092;8.542;2022-08-18T00:16:34;3.53;;;3.22;;
9892;SDS011;4985;49.092;8.542;2022-08-18T00:19:01;5.45;;;3.85;;
9892;SDS011;4985;49.092;8.542;2022-08-18T00:21:28;3.92;;;3.37;;
9892;SDS011;4985;49.092;8.542;2022-08-18T00:23:55;4.95;;;3.28;;
9892;SDS011;4985;49.092;8.542;2022-08-18T00:26:21;4.00;;;3.60;;
9892;SDS011;4985;49.092;8.542;2022-08-18T00:28:48;4.70;;;3.50;;
9892;SDS011;4985;49.092;8.542;2022-08-18T00:31:15;4.87;;;3.78;;
9892;SDS011;4985;49.092;8.542;2022-08-18T00:33:43;4.45;;;3.28;;
9892;SDS011;4985;49.092;8.542;2022-08-18T00:36:10;4.45;;;3.70;;
9892;SDS011;4985;49.092;8.542;2022-08-18T00:38:37;4.75;;;4.12;;
9892;SDS011;4985;49.092;8.542;2022-08-18T00:41:04;3.92;;;3.60;;
9892;SDS011;4985;49.092;8.542;2022-08-18T00:43:33;3.95;;;3.35;;
9892;SDS011;4985;49.092;8.542;2022-08-18T00:46:07;3.72;;;3.33;;
9892;SDS011;4985;49.092;8.542;2022-08-18T00:48:34;3.72;;;3.37;;
9892;SDS011;4985;49.092;8.542;2022-08-18T00:51:05;4.47;;;3.30;;
9892;SDS011;4985;49.092;8.542;2022-08-18T00:53:36;3.75;;;3.15;;
9892;SDS011;4985;49.092;8.542;2022-08-18T00:56:07;4.03;;;3.33;;
9892;SDS011;4985;49.092;8.542;2022-08-18T00:58:37;5.25;;;3.60;;
9892;SDS011;4985;49.092;8.542;2022-08-18T01:01:07;4.03;;;3.50;;
9892;SDS011;4985;49.092;8.542;2022-08-18T01:03:36;4.65;;;3.60;;
9892;SDS011;4985;49.092;8.542;2022-08-18T01:06:08;4.65;;;3.70;;
9892;SDS011;4985;49.092;8.542;2022-08-18T01:08:40;3.55;;;3.25;;
9892;SDS011;4985;49.092;8.542;2022-08-18T01:11:07;4.60;;;3.85;;
9892;SDS011;4985;49.092;8.542;2022-08-18T01:13:34;3.90;;;3.50;;
9892;SDS011;4985;49.092;8.542;2022-08-18T01:16:03;3.92;;;3.60;;
9892;SDS011;4985;49.092;8.542;2022-08-18T01:18:50;4.47;;;3.47;;
9892;SDS011;4985;49.092;8.542;2022-08-18T01:21:38;3.92;;;3.55;;
9892;SDS011;4985;49.092;8.542;2022-08-18T01:24:19;4.57;;;3.78;;
9892;SDS011;4985;49.092;8.542;2022-08-18T01:27:09;4.45;;;3.37;;
9892;SDS011;4985;49.092;8.542;2022-08-18T01:29:37;5.45;;;3.62;;
9892;SDS011;4985;49.092;8.542;2022-08-18T01:32:04;3.65;;;3.28;;
9892;SDS011;4985;49.092;8.542;2022-08-18T01:34:31;4.05;;;3.55;;
9892;SDS011;4985;49.092;8.542;2022-08-18T01:36:58;4.30;;;3.37;;
9892;SDS011;4985;49.092;8.542;2022-08-18T01:39:26;5.80;;;3.35;;
9892;SDS011;4985;49.092;8.542;2022-08-18T01:41:53;3.37;;;3.08;;
9892;SDS011;4985;49.092;8.542;2022-08-18T01:44:19;5.72;;;3.47;;
9892;SDS011;4985;49.092;8.542;2022-08-18T01:46:47;3.90;;;3.53;;
9892;SDS011;4985;49.092;8.542;2022-08-18T01:49:14;3.40;;;3.08;;
9892;SDS011;4985;49.092;8.542;2022-08-18T01:51:42;4.28;;;2.80;;
9892;SDS011;4985;49.092;8.542;2022-08-18T01:54:09;3.90;;;3.08;;
9892;SDS011;4985;49.092;8.542;2022-08-18T01:56:40;5.37;;;3.20;;
9892;SDS011;4985;49.092;8.542;2022-08-18T01:59:08;4.45;;;3.15;;
9892;SDS011;4985;49.092;8.542;2022-08-18T02:01:38;3.55;;;3.25;;
9892;SDS011;4985;49.092;8.542;2022-08-18T02:04:06;3.53;;;3.20;;
9892;SDS011;4985;49.092;8.542;2022-08-18T02:06:35;6.57;;;3.35;;
9892;SDS011;4985;49.092;8.542;2022-08-18T02:09:02;4.07;;;3.20;;
9892;SDS011;4985;49.092;8.542;2022-08-18T02:11:29;4.93;;;3.20;;
9892;SDS011;4985;49.092;8.542;2022-08-18T02:13:57;3.75;;;3.40;;
9892;SDS011;4985;49.092;8.542;2022-08-18T02:16:24;4.22;;;3.53;;
9892;SDS011;4985;49.092;8.542;2022-08-18T02:18:51;3.90;;;3.40;;
9892;SDS011;4985;49.092;8.542;2022-08-18T02:21:18;3.97;;;3.12;;
9892;SDS011;4985;49.092;8.542;2022-08-18T02:23:47;3.55;;;3.25;;
9892;SDS011;4985;49.092;8.542;2022-08-18T02:26:14;4.85;;;3.40;;
9892;SDS011;4985;49.092;8.542;2022-08-18T02:28:42;3.80;;;2.95;;
9892;SDS011;4985;49.092;8.542;2022-08-18T02:31:11;4.40;;;3.20;;
9892;SDS011;4985;49.092;8.542;2022-08-18T02:33:40;4.57;;;3.30;;
9892;SDS011;4985;49.092;8.542;2022-08-18T02:36:07;3.95;;;3.20;;
9892;SDS011;4985;49.092;8.542;2022-08-18T02:38:35;3.78;;;3.12;;
9892;SDS011;4985;49.092;8.542;2022-08-18T02:41:03;4.37;;;3.45;;
9892;SDS011;4985;49.092;8.542;2022-08-18T02:43:32;3.25;;;2.95;;
9892;SDS011;4985;49.092;8.542;2022-08-18T02:45:58;3.53;;;3.08;;
9892;SDS011;4985;49.092;8.542;2022-08-18T02:48:26;4.55;;;3.67;;
9892;SDS011;4985;49.092;8.542;2022-08-18T02:50:58;5.03;;;3.83;;
9892;SDS011;4985;49.092;8.542;2022-08-18T02:53:26;4.82;;;3.70;;
9892;SDS011;4985;49.092;8.542;2022-08-18T02:55:53;5.05;;;3.20;;
9892;SDS011;4985;49.092;8.542;2022-08-18T02:58:20;4.15;;;3.70;;
9892;SDS011;4985;49.092;8.542;2022-08-18T03:00:47;4.53;;;3.60;;
9892;SDS011;4985;49.092;8.542;2022-08-18T03:03:13;4.32;;;3.42;;
9892;SDS011;4985;49.092;8.542;2022-08-18T03:05:42;4.45;;;3.65;;
9892;SDS011;4985;49.092;8.542;2022-08-18T03:08:08;4.05;;;3.50;;
9892;SDS011;4985;49.092;8.542;2022-08-18T03:10:35;4.03;;;3.62;;
9892;SDS011;4985;49.092;8.542;2022-08-18T03:13:03;3.60;;;3.30;;
9892;SDS011;4985;49.092;8.542;2022-08-18T03:15:30;3.62;;;3.10;;
9892;SDS011;4985;49.092;8.542;2022-08-18T03:17:57;3.78;;;3.47;;
9892;SDS011;4985;49.092;8.542;2022-08-18T03:20:24;4.22;;;3.62;;
9892;SDS011;4985;49.092;8.542;2022-08-18T03:22:53;4.12;;;3.50;;
9892;SDS011;4985;49.092;8.542;2022-08-18T03:25:19;3.92;;;3.00;;
9892;SDS011;4985;49.092;8.542;2022-08-18T03:27:46;4.10;;;3.45;;
9892;SDS011;4985;49.092;8.542;2022-08-18T03:30:13;4.57;;;3.22;;
9892;SDS011;4985;49.092;8.542;2022-08-18T03:32:39;5.20;;;3.67;;
9892;SDS011;4985;49.092;8.542;2022-08-18T03:35:06;4.25;;;3.35;;
9892;SDS011;4985;49.092;8.542;2022-08-18T03:37:34;4.10;;;3.10;;
9892;SDS011;4985;49.092;8.542;2022-08-18T03:40:02;6.32;;;3.60;;
9892;SDS011;4985;49.092;8.542;2022-08-18T03:42:29;4.07;;;3.67;;
9892;SDS011;4985;49.092;8.542;2022-08-18T03:44:56;4.85;;;3.72;;
9892;SDS011;4985;49.092;8.542;2022-08-18T03:47:23;3.70;;;3.40;;
9892;SDS011;4985;49.092;8.542;2022-08-18T03:49:51;4.28;;;3.60;;
9892;SDS011;4985;49.092;8.542;2022-08-18T03:52:18;4.70;;;4.00;;
9892;SDS011;4985;49.092;8.542;2022-08-18T03:54:45;5.32;;;3.67;;
9892;SDS011;4985;49.092;8.542;2022-08-18T03:57:13;5.43;;;3.60;;
9892;SDS011;4985;49.092;8.542;2022-08-18T03:59:40;3.85;;;3.40;;
9892;SDS011;4985;49.092;8.542;2022-08-18T04:02:07;5.60;;;4.00;;
9892;SDS011;4985;49.092;8.542;2022-08-18T04:04:35;5.00;;;4.03;;
9892;SDS011;4985;49.092;8.542;2022-08-18T04:07:04;6.05;;;4.20;;
9892;SDS011;4985;49.092;8.542;2022-08-18T04:09:33;5.57;;;3.78;;
9892;SDS011;4985;49.092;8.542;2022-08-18T04:12:02;3.60;;;3.30;;
9892;SDS011;4985;49.092;8.542;2022-08-18T04:14:36;4.20;;;3.80;;
9892;SDS011;4985;49.092;8.542;2022-08-18T04:17:04;5.25;;;3.87;;
9892;SDS011;4985;49.092;8.542;2022-08-18T04:19:31;4.53;;;3.80;;
9892;SDS011;4985;49.092;8.542;2022-08-18T04:21:59;5.55;;;3.80;;
9892;SDS011;4985;49.092;8.542;2022-08-18T04:24:28;4.85;;;4.07;;
9892;SDS011;4985;49.092;8.542;2022-08-18T04:26:56;4.03;;;3.60;;
9892;SDS011;4985;49.092;8.542;2022-08-18T04:29:24;5.40;;;4.00;;
9892;SDS011;4985;49.092;8.542;2022-08-18T04:31:52;4.60;;;3.78;;
9892;SDS011;4985;49.092;8.542;2022-08-18T04:34:20;4.30;;;3.85;;
9892;SDS011;4985;49.092;8.542;2022-08-18T04:36:48;5.53;;;3.90;;
9892;SDS011;4985;49.092;8.542;2022-08-18T04:39:17;4.03;;;3.62;;
9892;SDS011;4985;49.092;8.542;2022-08-18T04:41:44;4.55;;;4.15;;
9892;SDS011;4985;49.092;8.542;2022-08-18T04:44:12;4.55;;;3.70;;
9892;SDS011;4985;49.092;8.542;2022-08-18T04:46:43;4.53;;;3.67;;
9892;SDS011;4985;49.092;8.542;2022-08-18T04:49:13;5.50;;;3.75;;
9892;SDS011;4985;49.092;8.542;2022-08-18T04:51:42;4.20;;;3.80;;
9892;SDS011;4985;49.092;8.542;2022-08-18T04:54:30;4.72;;;4.00;;
9892;SDS011;4985;49.092;8.542;2022-08-18T04:56:58;5.43;;;4.10;;
9892;SDS011;4985;49.092;8.542;2022-08-18T04:59:25;4.60;;;3.90;;
9892;SDS011;4985;49.092;8.542;2022-08-18T05:01:52;4.07;;;3.67;;
9892;SDS011;4985;49.092;8.542;2022-08-18T05:04:20;4.65;;;4.03;;
9892;SDS011;4985;49.092;8.542;2022-08-18T05:06:46;4.93;;;3.70;;
9892;SDS011;4985;49.092;8.542;2022-08-18T05:09:13;5.05;;;3.90;;
9892;SDS011;4985;49.092;8.542;2022-08-18T05:11:41;5.85;;;3.53;;
9892;SDS011;4985;49.092;8.542;2022-08-18T05:14:09;4.60;;;4.10;;
9892;SDS011;4985;49.092;8.542;2022-08-18T05:16:36;4.18;;;3.78;;
9892;SDS011;4985;49.092;8.542;2022-08-18T05:19:04;5.05;;;4.53;;
9892;SDS011;4985;49.092;8.542;2022-08-18T05:21:33;5.30;;;3.92;;
9892;SDS011;4985;49.092;8.542;2022-08-18T05:24:01;4.50;;;4.03;;
9892;SDS011;4985;49.092;8.542;2022-08-18T05:26:28;4.45;;;4.05;;
9892;SDS011;4985;49.092;8.542;2022-08-18T05:28:56;4.80;;;4.18;;
9892;SDS011;4985;49.092;8.542;2022-08-18T05:31:23;4.75;;;3.87;;
9892;SDS011;4985;49.092;8.542;2022-08-18T05:33:51;4.70;;;4.20;;
9892;SDS011;4985;49.092;8.542;2022-08-18T05:36:22;8.40;;;4.57;;
9892;SDS011;4985;49.092;8.542;2022-08-18T05:39:02;5.18;;;4.68;;
9892;SDS011;4985;49.092;8.542;2022-08-18T05:41:36;4.35;;;3.95;;
9892;SDS011;4985;49.092;8.542;2022-08-18T05:44:05;4.95;;;4.22;;
9892;SDS011;4985;49.092;8.542;2022-08-18T05:46:36;4.80;;;4.30;;
9892;SDS011;4985;49.092;8.542;2022-08-18T05:49:09;5.68;;;3.87;;
9892;SDS011;4985;49.092;8.542;2022-08-18T05:51:38;6.12;;;4.43;;
9892;SDS011;4985;49.092;8.542;2022-08-18T05:54:08;5.03;;;3.90;;
9892;SDS011;4985;49.092;8.542;2022-08-18T05:56:56;5.47;;;4.22;;
9892;SDS011;4985;49.092;8.542;2022-08-18T05:59:26;4.85;;;4.35;;
9892;SDS011;4985;49.092;8.542;2022-08-18T06:01:58;4.78;;;4.28;;
9892;SDS011;4985;49.092;8.542;2022-08-18T06:04:42;6.03;;;4.25;;
9892;SDS011;4985;49.092;8.542;2022-08-18T06:07:15;4.28;;;3.83;;
9892;SDS011;4985;49.092;8.542;2022-08-18T06:09:47;4.78;;;4.30;;
9892;SDS011;4985;49.092;8.542;2022-08-18T06:12:18;4.30;;;3.90;;
9892;SDS011;4985;49.092;8.542;2022-08-18T06:14:53;5.93;;;4.12;;
9892;SDS011;4985;49.092;8.542;2022-08-18T06:17:31;5.93;;;3.50;;
9892;SDS011;4985;49.092;8.542;2022-08-18T06:20:13;4.78;;;3.78;;
9892;SDS011;4985;49.092;8.542;2022-08-18T06:22:49;5.80;;;3.47;;
9892;SDS011;4985;49.092;8.542;2022-08-18T06:25:24;5.28;;;4.05;;
9892;SDS011;4985;49.092;8.542;2022-08-18T06:28:00;4.53;;;3.65;;
9892;SDS011;4985;49.092;8.542;2022-08-18T06:30:35;6.90;;;3.90;;
9892;SDS011;4985;49.092;8.542;2022-08-18T06:33:12;4.60;;;3.75;;
9892;SDS011;4985;49.092;8.542;2022-08-18T06:35:58;5.30;;;3.55;;
9892;SDS011;4985;49.092;8.542;2022-08-18T06:38:33;4.90;;;3.40;;
9892;SDS011;4985;49.092;8.542;2022-08-18T06:41:12;4.82;;;3.50;;
9892;SDS011;4985;49.092;8.542;2022-08-18T06:43:43;4.95;;;3.78;;
9892;SDS011;4985;49.092;8.542;2022-08-18T06:46:22;5.85;;;4.07;;
9892;SDS011;4985;49.092;8.542;2022-08-18T06:48:58;5.28;;;3.95;;
9892;SDS011;4985;49.092;8.542;2022-08-18T06:51:29;5.78;;;3.37;;
9892;SDS011;4985;49.092;8.542;2022-08-18T06:53:57;4.75;;;3.58;;
9892;SDS011;4985;49.092;8.542;2022-08-18T06:56:32;4.25;;;3.60;;
9892;SDS011;4985;49.092;8.542;2022-08-18T06:59:15;4.80;;;3.20;;
9892;SDS011;4985;49.092;8.542;2022-08-18T07:01:44;4.43;;;3.60;;
9892;SDS011;4985;49.092;8.542;2022-08-18T07:09:56;4.12;;;3.60;;
9892;SDS011;4985;49.092;8.542;2022-08-18T07:12:26;3.87;;;3.37;;
9892;SDS011;4985;49.092;8.542;2022-08-18T07:14:54;4.43;;;3.42;;
9892;SDS011;4985;49.092;8.542;2022-08-18T07:17:24;3.92;;;3.58;;
9892;SDS011;4985;49.092;8.542;2022-08-18T07:19:57;5.65;;;3.58;;
9892;SDS011;4985;49.092;8.542;2022-08-18T07:22:26;5.03;;;3.65;;
9892;SDS011;4985;49.092;8.542;2022-08-18T07:24:54;4.95;;;3.90;;
9892;SDS011;4985;49.092;8.542;2022-08-18T07:30:26;4.85;;;4.07;;
9892;SDS011;4985;49.092;8.542;2022-08-18T07:32:56;3.67;;;3.35;;
9892;SDS011;4985;49.092;8.542;2022-08-18T07:35:29;11.70;;;4.37;;
9892;SDS011;4985;49.092;8.542;2022-08-18T07:38:05;5.05;;;3.78;;
9892;SDS011;4985;49.092;8.542;2022-08-18T07:40:44;4.87;;;4.22;;
9892;SDS011;4985;49.092;8.542;2022-08-18T07:43:16;7.12;;;4.00;;
9892;SDS011;4985;49.092;8.542;2022-08-18T07:45:50;4.70;;;3.97;;
9892;SDS011;4985;49.092;8.542;2022-08-18T07:48:23;4.50;;;3.78;;
9892;SDS011;4985;49.092;8.542;2022-08-18T07:50:56;4.15;;;3.70;;
9892;SDS011;4985;49.092;8.542;2022-08-18T07:53:30;6.47;;;4.20;;
9892;SDS011;4985;49.092;8.542;2022-08-18T07:56:04;6.95;;;3.90;;
9892;SDS011;4985;49.092;8.542;2022-08-18T07:58:39;5.87;;;3.70;;
9892;SDS011;4985;49.092;8.542;2022-08-18T08:01:15;5.55;;;4.28;;
9892;SDS011;4985;49.092;8.542;2022-08-18T08:03:49;5.10;;;4.25;;
9892;SDS011;4985;49.092;8.542;2022-08-18T08:06:27;7.75;;;4.10;;
9892;SDS011;4985;49.092;8.542;2022-08-18T08:09:00;5.00;;;4.50;;
9892;SDS011;4985;49.092;8.542;2022-08-18T08:11:42;5.25;;;4.05;;
9892;SDS011;4985;49.092;8.542;2022-08-18T08:14:20;6.07;;;4.60;;
9892;SDS011;4985;49.092;8.542;2022-08-18T08:17:05;8.10;;;4.53;;
9892;SDS011;4985;49.092;8.542;2022-08-18T08:19:44;5.50;;;4.12;;
9892;SDS011;4985;49.092;8.542;2022-08-18T08:22:24;8.05;;;4.60;;
9892;SDS011;4985;49.092;8.542;2022-08-18T08:25:09;6.20;;;4.20;;
9892;SDS011;4985;49.092;8.542;2022-08-18T08:27:46;5.15;;;4.20;;
9892;SDS011;4985;49.092;8.542;2022-08-18T08:30:22;5.25;;;4.25;;
9892;SDS011;4985;49.092;8.542;2022-08-18T08:33:00;5.03;;;4.37;;
9892;SDS011;4985;49.092;8.542;2022-08-18T08:35:37;5.22;;;4.25;;
9892;SDS011;4985;49.092;8.542;2022-08-18T08:38:11;6.10;;;4.70;;
9892;SDS011;4985;49.092;8.542;2022-08-18T08:40:45;4.95;;;4.12;;
9892;SDS011;4985;49.092;8.542;2022-08-18T08:43:20;6.25;;;4.37;;
9892;SDS011;4985;49.092;8.542;2022-08-18T08:45:54;4.10;;;3.70;;
9892;SDS011;4985;49.092;8.542;2022-08-18T08:48:31;6.82;;;3.58;;
9892;SDS011;4985;49.092;8.542;2022-08-18T08:51:02;5.40;;;3.85;;
9892;SDS011;4985;49.092;8.542;2022-08-18T08:53:46;5.95;;;4.15;;
9892;SDS011;4985;49.092;8.542;2022-08-18T08:56:16;7.37;;;4.93;;
9892;SDS011;4985;49.092;8.542;2022-08-18T08:58:47;5.43;;;4.40;;
9892;SDS011;4985;49.092;8.542;2022-08-18T09:01:21;5.35;;;4.18;;
9892;SDS011;4985;49.092;8.542;2022-08-18T09:03:58;6.50;;;4.18;;
9892;SDS011;4985;49.092;8.542;2022-08-18T09:06:35;4.93;;;4.43;;
9892;SDS011;4985;49.092;8.542;2022-08-18T09:09:18;5.43;;;4.25;;
9892;SDS011;4985;49.092;8.542;2022-08-18T09:14:48;5.20;;;4.37;;
9892;SDS011;4985;49.092;8.542;2022-08-18T09:17:41;5.25;;;4.75;;
9892;SDS011;4985;49.092;8.542;2022-08-18T09:23:23;6.97;;;4.53;;
9892;SDS011;4985;49.092;8.542;2022-08-18T09:25:53;5.03;;;4.12;;
9892;SDS011;4985;49.092;8.542;2022-08-18T09:28:22;6.72;;;4.30;;
9892;SDS011;4985;49.092;8.542;2022-08-18T09:31:20;4.60;;;4.05;;
9892;SDS011;4985;49.092;8.542;2022-08-18T09:33:51;6.12;;;4.85;;
9892;SDS011;4985;49.092;8.542;2022-08-18T09:36:34;7.55;;;5.10;;
9892;SDS011;4985;49.092;8.542;2022-08-18T09:39:14;6.95;;;4.90;;
9892;SDS011;4985;49.092;8.542;2022-08-18T09:42:07;8.50;;;5.62;;
9892;SDS011;4985;49.092;8.542;2022-08-18T09:53:33;8.95;;;5.20;;
9892;SDS011;4985;49.092;8.542;2022-08-18T09:56:17;7.72;;;5.45;;
9892;SDS011;4985;49.092;8.542;2022-08-18T10:06:02;8.82;;;6.65;;
9892;SDS011;4985;49.092;8.542;2022-08-18T10:11:53;7.70;;;5.50;;
9892;SDS011;4985;49.092;8.542;2022-08-18T10:14:36;8.32;;;6.22;;
9892;SDS011;4985;49.092;8.542;2022-08-18T10:17:22;7.07;;;6.05;;
9892;SDS011;4985;49.092;8.542;2022-08-18T10:20:06;9.43;;;6.50;;
9892;SDS011;4985;49.092;8.542;2022-08-18T10:22:46;5.97;;;5.15;;
9892;SDS011;4985;49.092;8.542;2022-08-18T10:25:29;6.55;;;5.95;;
9892;SDS011;4985;49.092;8.542;2022-08-18T10:27:58;6.15;;;5.12;;
9892;SDS011;4985;49.092;8.542;2022-08-18T10:33:12;8.00;;;5.80;;
9892;SDS011;4985;49.092;8.542;2022-08-18T10:36:31;7.90;;;5.75;;
9892;SDS011;4985;49.092;8.542;2022-08-18T10:39:03;9.43;;;7.10;;
9892;SDS011;4985;49.092;8.542;2022-08-18T10:41:32;10.20;;;7.57;;
9892;SDS011;4985;49.092;8.542;2022-08-18T10:44:03;8.05;;;5.97;;
9892;SDS011;4985;49.092;8.542;2022-08-18T10:46:32;11.18;;;6.57;;
9892;SDS011;4985;49.092;8.542;2022-08-18T10:49:14;7.32;;;6.00;;
9892;SDS011;4985;49.092;8.542;2022-08-18T10:51:55;7.10;;;6.07;;
9892;SDS011;4985;49.092;8.542;2022-08-18T10:54:44;7.25;;;5.72;;
9892;SDS011;4985;49.092;8.542;2022-08-18T10:57:37;7.28;;;5.62;;
9892;SDS011;4985;49.092;8.542;2022-08-18T11:00:26;7.10;;;6.05;;
9892;SDS011;4985;49.092;8.542;2022-08-18T11:03:10;9.38;;;6.22;;
9892;SDS011;4985;49.092;8.542;2022-08-18T11:05:47;6.35;;;5.20;;
9892;SDS011;4985;49.092;8.542;2022-08-18T11:08:14;6.82;;;5.45;;
9892;SDS011;4985;49.092;8.542;2022-08-18T11:10:45;7.45;;;5.75;;
9892;SDS011;4985;49.092;8.542;2022-08-18T11:13:18;7.00;;;5.75;;
9892;SDS011;4985;49.092;8.542;2022-08-18T11:15:56;6.03;;;5.43;;
9892;SDS011;4985;49.092;8.542;2022-08-18T11:18:33;9.45;;;5.28;;
9892;SDS011;4985;49.092;8.542;2022-08-18T11:21:29;5.55;;;4.97;;
9892;SDS011;4985;49.092;8.542;2022-08-18T11:24:02;5.87;;;5.15;;
9892;SDS011;4985;49.092;8.542;2022-08-18T11:26:34;7.72;;;5.68;;
9892;SDS011;4985;49.092;8.542;2022-08-18T11:29:17;7.50;;;5.78;;
9892;SDS011;4985;49.092;8.542;2022-08-18T11:31:48;6.43;;;5.15;;
9892;SDS011;4985;49.092;8.542;2022-08-18T11:34:21;6.47;;;5.78;;
9892;SDS011;4985;49.092;8.542;2022-08-18T11:36:54;7.40;;;6.25;;
9892;SDS011;4985;49.092;8.542;2022-08-18T11:39:23;10.57;;;5.72;;
9892;SDS011;4985;49.092;8.542;2022-08-18T11:41:50;8.43;;;6.30;;
9892;SDS011;4985;49.092;8.542;2022-08-18T11:44:19;9.27;;;7.85;;
9892;SDS011;4985;49.092;8.542;2022-08-18T11:46:52;7.62;;;6.80;;
9892;SDS011;4985;49.092;8.542;2022-08-18T11:49:25;8.60;;;6.78;;
9892;SDS011;4985;49.092;8.542;2022-08-18T11:51:58;9.68;;;6.68;;
9892;SDS011;4985;49.092;8.542;2022-08-18T11:54:32;8.43;;;6.62;;
9892;SDS011;4985;49.092;8.542;2022-08-18T11:59:57;8.98;;;8.05;;
9892;SDS011;4985;49.092;8.542;2022-08-18T12:02:24;6.82;;;6.12;;
9892;SDS011;4985;49.092;8.542;2022-08-18T12:04:52;8.27;;;6.95;;
9892;SDS011;4985;49.092;8.542;2022-08-18T12:07:28;9.38;;;6.35;;
9892;SDS011;4985;49.092;8.542;2022-08-18T12:10:09;10.05;;;7.57;;
9892;SDS011;4985;49.092;8.542;2022-08-18T12:12:43;8.88;;;7.68;;
9892;SDS011;4985;49.092;8.542;2022-08-18T12:15:27;7.57;;;6.50;;
9892;SDS011;4985;49.092;8.542;2022-08-18T12:17:55;8.65;;;7.05;;
9892;SDS011;4985;49.092;8.542;2022-08-18T12:20:22;9.68;;;7.93;;
9892;SDS011;4985;49.092;8.542;2022-08-18T12:22:48;9.50;;;7.60;;
9892;SDS011;4985;49.092;8.542;2022-08-18T12:25:18;7.25;;;5.68;;
9892;SDS011;4985;49.092;8.542;2022-08-18T12:27:45;8.98;;;6.50;;
9892;SDS011;4985;49.092;8.542;2022-08-18T12:30:12;8.40;;;5.95;;
9892;SDS011;4985;49.092;8.542;2022-08-18T12:32:41;6.65;;;5.85;;
9892;SDS011;4985;49.092;8.542;2022-08-18T12:35:09;8.75;;;5.97;;
9892;SDS011;4985;49.092;8.542;2022-08-18T12:37:37;7.65;;;6.32;;
9892;SDS011;4985;49.092;8.542;2022-08-18T12:40:08;7.90;;;6.15;;
9892;SDS011;4985;49.092;8.542;2022-08-18T12:42:36;7.75;;;6.28;;
9892;SDS011;4985;49.092;8.542;2022-08-18T12:45:03;7.68;;;6.35;;
9892;SDS011;4985;49.092;8.542;2022-08-18T12:47:31;7.15;;;5.85;;
9892;SDS011;4985;49.092;8.542;2022-08-18T12:49:59;8.13;;;5.35;;
9892;SDS011;4985;49.092;8.542;2022-08-18T12:52:25;10.02;;;7.78;;
9892;SDS011;4985;49.092;8.542;2022-08-18T12:54:52;6.75;;;5.72;;
9892;SDS011;4985;49.092;8.542;2022-08-18T12:57:20;6.35;;;5.75;;
9892;SDS011;4985;49.092;8.542;2022-08-18T12:59:48;8.10;;;6.35;;
9892;SDS011;4985;49.092;8.542;2022-08-18T13:02:14;8.65;;;5.53;;
9892;SDS011;4985;49.092;8.542;2022-08-18T13:04:41;5.85;;;5.25;;
9892;SDS011;4985;49.092;8.542;2022-08-18T13:07:10;5.70;;;5.03;;
9892;SDS011;4985;49.092;8.542;2022-08-18T13:09:38;5.95;;;5.12;;
9892;SDS011;4985;49.092;8.542;2022-08-18T13:12:05;6.70;;;5.35;;
9892;SDS011;4985;49.092;8.542;2022-08-18T13:14:33;6.37;;;5.28;;
9892;SDS011;4985;49.092;8.542;2022-08-18T13:17:00;5.65;;;4.82;;
9892;SDS011;4985;49.092;8.542;2022-08-18T13:19:28;8.57;;;5.95;;
9892;SDS011;4985;49.092;8.542;2022-08-18T13:21:55;7.05;;;4.70;;
9892;SDS011;4985;49.092;8.542;2022-08-18T13:24:23;7.53;;;4.65;;
9892;SDS011;4985;49.092;8.542;2022-08-18T13:26:50;5.53;;;5.03;;
9892;SDS011;4985;49.092;8.542;2022-08-18T13:29:16;5.97;;;5.00;;
9892;SDS011;4985;49.092;8.542;2022-08-18T13:31:45;5.37;;;4.37;;
9892;SDS011;4985;49.092;8.542;2022-08-18T13:34:12;6.50;;;4.65;;
9892;SDS011;4985;49.092;8.542;2022-08-18T13:36:38;6.87;;;4.43;;
9892;SDS011;4985;49.092;8.542;2022-08-18T13:39:12;4.80;;;4.18;;
9892;SDS011;4985;49.092;8.542;2022-08-18T13:41:41;6.07;;;4.72;;
9892;SDS011;4985;49.092;8.542;2022-08-18T13:44:09;7.32;;;5.45;;
9892;SDS011;4985;49.092;8.542;2022-08-18T13:46:39;6.15;;;4.97;;
9892;SDS011;4985;49.092;8.542;2022-08-18T13:49:10;5.57;;;5.00;;
9892;SDS011;4985;49.092;8.542;2022-08-18T13:51:36;4.57;;;4.12;;
9892;SDS011;4985;49.092;8.542;2022-08-18T13:54:03;5.22;;;4.18;;
9892;SDS011;4985;49.092;8.542;2022-08-18T13:56:30;6.28;;;4.80;;
9892;SDS011;4985;49.092;8.542;2022-08-18T13:58:58;5.05;;;4.50;;
9892;SDS011;4985;49.092;8.542;2022-08-18T14:01:25;7.05;;;5.00;;
9892;SDS011;4985;49.092;8.542;2022-08-18T14:03:51;5.20;;;4.47;;
9892;SDS011;4985;49.092;8.542;2022-08-18T14:06:18;5.95;;;4.97;;
9892;SDS011;4985;49.092;8.542;2022-08-18T14:08:45;6.80;;;4.25;;
9892;SDS011;4985;49.092;8.542;2022-08-18T14:11:12;5.28;;;4.05;;
9892;SDS011;4985;49.092;8.542;2022-08-18T14:13:39;7.18;;;4.78;;
9892;SDS011;4985;49.092;8.542;2022-08-18T14:16:07;5.43;;;4.90;;
9892;SDS011;4985;49.092;8.542;2022-08-18T14:18:34;5.10;;;4.60;;
9892;SDS011;4985;49.092;8.542;2022-08-18T14:21:00;5.18;;;4.68;;
9892;SDS011;4985;49.092;8.542;2022-08-18T14:23:46;5.07;;;4.37;;
9892;SDS011;4985;49.092;8.542;2022-08-18T14:26:30;6.47;;;4.95;;
9892;SDS011;4985;49.092;8.542;2022-08-18T14:29:12;6.43;;;4.72;;
9892;SDS011;4985;49.092;8.542;2022-08-18T14:31:41;6.45;;;5.50;;
9892;SDS011;4985;49.092;8.542;2022-08-18T14:34:08;8.35;;;4.90;;
9892;SDS011;4985;49.092;8.542;2022-08-18T14:36:35;6.12;;;5.10;;
9892;SDS011;4985;49.092;8.542;2022-08-18T14:39:02;6.15;;;5.55;;
9892;SDS011;4985;49.092;8.542;2022-08-18T14:41:30;6.93;;;5.37;;
9892;SDS011;4985;49.092;8.542;2022-08-18T14:43:59;5.62;;;5.03;;
9892;SDS011;4985;49.092;8.542;2022-08-18T14:46:25;7.18;;;5.18;;
9892;SDS011;4985;49.092;8.542;2022-08-18T14:48:54;6.93;;;4.50;;
9892;SDS011;4985;49.092;8.542;2022-08-18T14:51:20;5.00;;;4.07;;
9892;SDS011;4985;49.092;8.542;2022-08-18T14:53:47;6.15;;;4.12;;
9892;SDS011;4985;49.092;8.542;2022-08-18T14:56:13;6.32;;;4.47;;
9892;SDS011;4985;49.092;8.542;2022-08-18T14:58:40;4.97;;;4.35;;
9892;SDS011;4985;49.092;8.542;2022-08-18T15:01:08;5.85;;;4.60;;
9892;SDS011;4985;49.092;8.542;2022-08-18T15:03:37;9.18;;;5.35;;
9892;SDS011;4985;49.092;8.542;2022-08-18T15:06:06;4.57;;;4.10;;
9892;SDS011;4985;49.092;8.542;2022-08-18T15:08:35;5.45;;;4.40;;
9892;SDS011;4985;49.092;8.542;2022-08-18T15:11:03;5.35;;;4.65;;
9892;SDS011;4985;49.092;8.542;2022-08-18T15:13:31;6.05;;;5.20;;
9892;SDS011;4985;49.092;8.542;2022-08-18T15:15:59;5.57;;;4.68;;
9892;SDS011;4985;49.092;8.542;2022-08-18T15:18:25;5.35;;;4.85;;
9892;SDS011;4985;49.092;8.542;2022-08-18T15:20:52;5.72;;;5.10;;
9892;SDS011;4985;49.092;8.542;2022-08-18T15:23:37;7.95;;;4.80;;
9892;SDS011;4985;49.092;8.542;2022-08-18T15:26:23;5.80;;;4.07;;
9892;SDS011;4985;49.092;8.542;2022-08-18T15:28:51;5.45;;;4.93;;
9892;SDS011;4985;49.092;8.542;2022-08-18T15:31:18;6.70;;;4.90;;
9892;SDS011;4985;49.092;8.542;2022-08-18T15:33:45;4.65;;;4.25;;
9892;SDS011;4985;49.092;8.542;2022-08-18T15:36:12;5.07;;;4.57;;
9892;SDS011;4985;49.092;8.542;2022-08-18T15:38:42;4.40;;;4.00;;
9892;SDS011;4985;49.092;8.542;2022-08-18T15:41:08;6.55;;;4.93;;
9892;SDS011;4985;49.092;8.542;2022-08-18T15:43:35;4.65;;;3.87;;
9892;SDS011;4985;49.092;8.542;2022-08-18T15:46:03;4.28;;;3.83;;
9892;SDS011;4985;49.092;8.542;2022-08-18T15:48:31;4.55;;;4.07;;
9892;SDS011;4985;49.092;8.542;2022-08-18T15:50:58;4.20;;;3.80;;
9892;SDS011;4985;49.092;8.542;2022-08-18T15:53:25;4.57;;;4.18;;
9892;SDS011;4985;49.092;8.542;2022-08-18T15:55:53;4.90;;;4.40;;
9892;SDS011;4985;49.092;8.542;2022-08-18T15:58:20;4.85;;;4.15;;
9892;SDS011;4985;49.092;8.542;2022-08-18T16:00:46;4.75;;;4.35;;
9892;SDS011;4985;49.092;8.542;2022-08-18T16:03:13;6.32;;;4.97;;
9892;SDS011;4985;49.092;8.542;2022-08-18T16:05:45;5.85;;;4.97;;
9892;SDS011;4985;49.092;8.542;2022-08-18T16:08:15;5.28;;;4.78;;
9892;SDS011;4985;49.092;8.542;2022-08-18T16:10:43;4.80;;;4.18;;
9892;SDS011;4985;49.092;8.542;2022-08-18T16:13:12;4.82;;;3.87;;
9892;SDS011;4985;49.092;8.542;2022-08-18T16:15:39;6.72;;;5.60;;
9892;SDS011;4985;49.092;8.542;2022-08-18T16:18:10;6.87;;;5.00;;
9892;SDS011;4985;49.092;8.542;2022-08-18T16:20:37;6.25;;;5.65;;